createdAt,value
2022-10-25T03:45:12.311Z,100.00
2022-10-25T03:48:15.617Z,100.00
2022-10-25T03:51:18.341Z,100.00
2022-10-25T03:54:23.344Z,100.00
2022-10-25T03:57:29.406Z,100.00
2022-10-25T04:00:32.266Z,100.00
2022-10-25T04:03:35.799Z,100.00
2022-10-25T04:06:38.403Z,100.00
2022-10-25T04:09:41.217Z,100.00
2022-10-25T04:12:43.802Z,100.00
2022-10-25T04:15:46.550Z,100.00
2022-10-25T04:18:51.641Z,100.00
2022-10-25T04:21:54.593Z,100.00
2022-10-25T04:24:57.303Z,100.00
2022-10-25T04:28:00.488Z,100.00
2022-10-25T04:31:03.643Z,100.00
2022-10-25T04:34:06.449Z,100.00
2022-10-25T04:37:08.968Z,100.00
2022-10-25T04:40:12.455Z,100.00
2022-10-25T04:43:14.931Z,100.00
2022-10-25T04:46:18.294Z,100.00
2022-10-25T04:49:20.876Z,100.00
2022-10-25T04:52:23.852Z,100.00
2022-10-25T04:55:26.323Z,100.00
2022-10-25T04:58:31.424Z,100.00
2022-10-25T05:01:34.434Z,100.00
2022-10-25T05:04:37.344Z,100.00
2022-10-25T05:07:39.893Z,100.00
2022-10-25T05:10:42.704Z,100.00
2022-10-25T05:13:46.065Z,100.00
2022-10-25T05:16:48.776Z,100.00
2022-10-25T05:19:51.236Z,100.00
2022-10-25T05:22:54.085Z,100.00
2022-10-25T05:26:14.840Z,100.00
2022-10-25T05:29:17.631Z,100.00
2022-10-25T05:32:20.141Z,100.00
2022-10-25T05:35:23.106Z,100.00
2022-10-25T05:38:25.791Z,100.00
2022-10-25T05:41:31.891Z,100.00
2022-10-25T05:44:37.335Z,100.00
2022-10-25T05:47:40.113Z,100.00
2022-10-25T05:50:42.994Z,100.00
2022-10-25T05:53:51.690Z,100.00
2022-10-25T05:56:54.135Z,100.00
2022-10-25T05:59:56.952Z,100.00
2022-10-25T06:03:01.829Z,100.00
2022-10-25T06:06:07.672Z,100.00
2022-10-25T06:09:10.963Z,100.00
2022-10-25T06:12:13.732Z,100.00
2022-10-25T06:15:16.531Z,100.00
2022-10-25T06:18:19.357Z,100.00
2022-10-25T06:21:24.629Z,100.00
2022-10-25T06:24:27.481Z,100.00
2022-10-25T06:27:30.141Z,100.00
2022-10-25T06:30:33.051Z,100.00
2022-10-25T06:33:35.811Z,100.00
2022-10-25T06:36:38.709Z,100.00
2022-10-25T06:39:41.328Z,100.00
2022-10-25T06:42:45.188Z,100.00
2022-10-25T06:45:47.771Z,100.00
2022-10-25T06:48:51.211Z,100.00
2022-10-25T06:51:54.787Z,100.00
2022-10-25T06:54:57.570Z,100.00
2022-10-25T06:58:00.119Z,100.00
2022-10-25T07:01:03.441Z,100.00
2022-10-25T07:04:05.934Z,100.00
2022-10-25T07:07:08.803Z,100.00
2022-10-25T07:10:11.307Z,100.00
2022-10-25T07:13:14.143Z,100.00
2022-10-25T07:16:18.847Z,100.00
2022-10-25T07:19:23.878Z,100.00
2022-10-25T07:22:26.631Z,100.00
2022-10-25T07:25:29.832Z,100.00
2022-10-25T07:28:32.341Z,100.00
2022-10-25T07:31:40.833Z,100.00
2022-10-25T07:34:43.329Z,100.00
2022-10-25T07:37:46.295Z,100.00
2022-10-25T07:40:49.071Z,100.00
2022-10-25T07:43:52.010Z,100.00
2022-10-25T07:46:55.558Z,100.00
2022-10-25T07:50:00.554Z,100.00
2022-10-25T07:53:03.269Z,100.00
2022-10-25T07:56:06.836Z,100.00
2022-10-25T07:59:09.589Z,100.00
2022-10-25T08:02:12.601Z,100.00
2022-10-25T08:05:15.543Z,100.00
2022-10-25T08:08:20.065Z,100.00
2022-10-25T08:11:25.695Z,100.00
2022-10-25T08:14:28.273Z,100.00
2022-10-25T08:17:31.065Z,100.00
2022-10-25T08:20:56.757Z,100.00
2022-10-25T08:23:56.855Z,100.00
2022-10-25T08:26:59.365Z,100.00
2022-10-25T08:30:02.341Z,100.00
2022-10-25T08:33:11.239Z,100.00
2022-10-25T08:36:16.775Z,100.00
2022-10-25T08:39:19.517Z,100.00
2022-10-25T08:42:32.967Z,100.00
2022-10-25T08:45:40.409Z,100.00
2022-10-25T08:48:51.396Z,100.00
2022-10-25T08:51:56.452Z,100.00
2022-10-25T08:55:05.703Z,100.00
2022-10-25T08:58:17.606Z,100.00
2022-10-25T09:01:47.271Z,100.00
2022-10-25T09:04:50.009Z,100.00
2022-10-25T09:08:08.022Z,100.00
2022-10-25T09:11:28.660Z,100.00
2022-10-25T09:14:43.138Z,100.00
2022-10-25T09:17:51.166Z,100.00
2022-10-25T09:20:54.324Z,100.00
2022-10-25T09:23:59.106Z,100.00
2022-10-25T09:27:07.856Z,100.00
2022-10-25T09:30:12.743Z,100.00
2022-10-25T09:33:20.900Z,100.00
2022-10-25T09:36:25.292Z,100.00
2022-10-25T09:39:37.264Z,100.00
2022-10-25T09:42:46.452Z,100.00
2022-10-25T09:45:57.044Z,100.00
2022-10-25T09:49:06.225Z,100.00
2022-10-25T09:52:21.992Z,100.00
2022-10-25T09:55:54.080Z,100.00
2022-10-25T09:59:01.284Z,100.00
2022-10-25T10:02:04.159Z,100.00
2022-10-25T10:05:21.098Z,100.00
2022-10-25T10:08:25.584Z,100.00
2022-10-25T10:11:29.397Z,100.00
2022-10-25T10:14:40.452Z,100.00
2022-10-25T10:17:43.224Z,100.00
2022-10-25T10:21:08.294Z,100.00
2022-10-25T10:24:33.520Z,100.00
2022-10-25T10:27:36.135Z,100.00
2022-10-25T10:30:39.892Z,100.00
2022-10-25T10:33:48.627Z,100.00
2022-10-25T10:37:12.597Z,100.00
2022-10-25T10:40:15.789Z,100.00
2022-10-25T10:43:36.347Z,100.00
2022-10-25T10:46:45.931Z,100.00
2022-10-25T10:49:48.789Z,100.00
2022-10-25T10:52:59.773Z,100.00
2022-10-25T10:56:07.144Z,100.00
2022-10-25T10:59:35.928Z,100.00
2022-10-25T11:02:42.702Z,100.00
2022-10-25T11:05:53.799Z,89.95
2022-10-25T11:09:17.855Z,88.85
2022-10-25T11:12:22.888Z,88.87
2022-10-25T11:15:30.038Z,81.40
2022-10-25T11:19:00.911Z,79.98
2022-10-25T11:22:12.010Z,78.90
2022-10-25T11:25:38.195Z,75.99
2022-10-25T11:28:54.902Z,79.49
2022-10-25T11:32:30.584Z,79.37
2022-10-25T11:35:59.378Z,81.58
2022-10-25T11:39:32.538Z,83.64
2022-10-25T11:42:42.597Z,83.03
2022-10-25T11:45:48.450Z,83.57
2022-10-25T11:49:17.378Z,85.27
2022-10-25T11:53:02.580Z,83.43
2022-10-25T11:56:33.078Z,83.73
2022-10-25T11:59:36.195Z,84.29
2022-10-25T12:02:57.087Z,82.54
2022-10-25T12:06:23.857Z,83.54
2022-10-25T12:09:45.092Z,84.35
2022-10-25T12:13:00.407Z,86.84
2022-10-25T12:16:08.485Z,88.68
2022-10-25T12:19:28.850Z,87.67
2022-10-25T12:22:39.456Z,85.71
2022-10-25T12:25:50.880Z,85.84
2022-10-25T12:28:53.919Z,81.19
2022-10-25T12:32:00.917Z,82.12
2022-10-25T12:35:15.264Z,78.08
2022-10-25T12:38:32.860Z,78.21
2022-10-25T12:41:38.232Z,77.03
2022-10-25T12:45:05.772Z,75.30
2022-10-25T12:48:42.628Z,73.97
2022-10-25T12:52:21.788Z,73.42
2022-10-25T12:55:45.617Z,73.23
2022-10-25T12:59:02.155Z,69.80
2022-10-25T13:02:17.056Z,70.28
2022-10-25T13:05:49.760Z,66.31
2022-10-25T13:08:53.916Z,63.59
2022-10-25T13:12:24.249Z,61.50
2022-10-25T13:15:40.862Z,56.48
2022-10-25T13:18:46.040Z,48.45
2022-10-25T13:21:54.648Z,39.25
2022-10-25T13:25:01.778Z,35.26
2022-10-25T13:28:16.291Z,30.33
2022-10-25T13:31:34.433Z,26.74
2022-10-25T13:34:37.026Z,24.70
2022-10-25T13:37:44.030Z,22.87
2022-10-25T13:41:05.847Z,22.24
2022-10-25T13:44:24.712Z,20.97
2022-10-25T13:47:47.987Z,20.01
2022-10-25T13:50:56.717Z,20.32
2022-10-25T13:54:06.109Z,20.59
2022-10-25T13:57:49.363Z,19.96
2022-10-25T14:00:53.673Z,18.77
2022-10-25T14:04:20.267Z,18.78
2022-10-25T14:07:45.347Z,18.56
2022-10-25T14:10:52.678Z,19.42
2022-10-25T14:14:44.933Z,20.48
2022-10-25T14:17:48.085Z,19.59
2022-10-25T14:20:56.679Z,20.78
2022-10-25T14:24:05.823Z,24.46
2022-10-25T14:27:25.810Z,29.66
2022-10-25T14:30:31.293Z,34.77
2022-10-25T14:33:39.440Z,39.59
2022-10-25T14:36:48.785Z,43.64
2022-10-25T14:39:52.937Z,47.55
2022-10-25T14:42:56.616Z,51.79
2022-10-25T14:46:14.686Z,55.07
2022-10-25T14:49:17.530Z,58.30
2022-10-25T14:52:20.629Z,62.21
2022-10-25T14:58:52.034Z,65.69
2022-10-25T15:02:19.288Z,67.47
2022-10-25T15:05:27.420Z,69.35
2022-10-25T15:08:30.739Z,68.96
2022-10-25T15:11:33.298Z,71.16
2022-10-25T15:14:35.959Z,71.80
2022-10-25T15:17:38.708Z,75.04
2022-10-25T15:20:41.468Z,77.30
2022-10-25T15:24:06.974Z,78.55
2022-10-25T15:27:45.312Z,81.22
